createdAt,value
2019-01-25T00:00:54.703Z,60.60
2019-01-25T00:03:21.380Z,54.60
2019-01-25T00:05:48.212Z,55.97
2019-01-25T00:08:15.021Z,51.37
2019-01-25T00:10:41.921Z,61.40
2019-01-25T00:13:08.676Z,49.20
2019-01-25T00:15:35.562Z,48.17
2019-01-25T00:18:03.146Z,53.40
2019-01-25T00:20:30.475Z,45.13
2019-01-25T00:22:57.296Z,48.67
2019-01-25T00:25:23.966Z,60.87
2019-01-25T00:27:50.757Z,50.27
2019-01-25T00:30:18.546Z,53.57
2019-01-25T00:32:45.449Z,56.20
2019-01-25T00:35:12.429Z,52.00
2019-01-25T00:37:39.289Z,46.53
2019-01-25T00:40:08.654Z,56.90
2019-01-25T00:42:35.346Z,55.90
2019-01-25T00:45:02.440Z,60.73
2019-01-25T00:47:29.268Z,66.37
2019-01-25T00:49:55.896Z,61.47
2019-01-25T00:52:23.408Z,61.73
2019-01-25T00:54:50.202Z,61.70
2019-01-25T00:57:16.957Z,54.87
2019-01-25T00:59:44.075Z,55.93
2019-01-25T01:02:10.892Z,58.93
2019-01-25T01:04:37.896Z,58.70
2019-01-25T01:07:04.808Z,57.80
2019-01-25T01:09:31.425Z,54.27
2019-01-25T01:11:58.091Z,56.80
2019-01-25T01:14:24.808Z,59.07
2019-01-25T01:16:51.533Z,57.97
2019-01-25T01:19:18.230Z,61.07
2019-01-25T01:21:44.969Z,59.30
2019-01-25T01:24:11.615Z,59.10
2019-01-25T01:26:38.325Z,55.23
2019-01-25T01:29:07.670Z,53.50
2019-01-25T01:31:34.477Z,49.57
2019-01-25T01:34:01.101Z,56.50
2019-01-25T01:36:27.728Z,59.47
2019-01-25T01:38:54.365Z,52.77
2019-01-25T01:41:21.012Z,53.50
2019-01-25T01:43:47.712Z,47.00
2019-01-25T01:46:14.345Z,50.23
2019-01-25T01:48:41.082Z,49.67
2019-01-25T01:51:08.134Z,51.47
2019-01-25T01:53:34.899Z,43.80
2019-01-25T01:56:01.757Z,44.17
2019-01-25T01:58:28.396Z,47.80
2019-01-25T02:00:55.121Z,48.43
2019-01-25T02:03:21.778Z,48.17
2019-01-25T02:05:48.490Z,57.53
2019-01-25T02:08:15.142Z,51.47
2019-01-25T02:10:41.913Z,54.80
2019-01-25T02:13:08.581Z,54.93
2019-01-25T02:15:35.261Z,55.17
2019-01-25T02:18:01.958Z,57.43
2019-01-25T02:20:29.721Z,49.53
2019-01-25T02:22:56.414Z,60.73
2019-01-25T02:25:24.268Z,54.97
2019-01-25T02:27:51.328Z,58.30
2019-01-25T02:30:19.675Z,42.80
2019-01-25T02:32:46.494Z,55.87
2019-01-25T02:35:13.370Z,51.90
2019-01-25T02:37:40.122Z,49.67
2019-01-25T02:40:07.889Z,55.30
2019-01-25T02:42:34.529Z,52.33
2019-01-25T02:45:01.218Z,48.57
2019-01-25T02:47:28.365Z,45.50
2019-01-25T02:49:55.053Z,49.27
2019-01-25T02:52:21.725Z,58.20
2019-01-25T02:54:48.411Z,47.33
2019-01-25T02:57:15.359Z,49.87
2019-01-25T02:59:42.297Z,51.80
2019-01-25T03:02:09.157Z,44.60
2019-01-25T03:04:36.039Z,45.17
2019-01-25T03:07:03.712Z,47.17
2019-01-25T03:09:30.630Z,47.03
2019-01-25T03:11:57.496Z,47.10
2019-01-25T03:14:24.303Z,47.93
2019-01-25T03:16:51.186Z,45.60
2019-01-25T03:19:17.964Z,49.57
2019-01-25T03:21:44.954Z,47.47
2019-01-25T03:24:11.788Z,53.00
2019-01-25T03:26:38.472Z,48.07
2019-01-25T03:29:05.160Z,49.90
2019-01-25T03:31:31.817Z,56.20
2019-01-25T03:33:58.546Z,43.63
2019-01-25T03:36:25.696Z,49.23
2019-01-25T03:38:52.393Z,48.17
2019-01-25T03:41:19.276Z,51.20
2019-01-25T03:43:45.898Z,56.10
2019-01-25T03:46:12.725Z,53.33
2019-01-25T03:48:39.574Z,35.07
2019-01-25T03:51:06.263Z,58.90
2019-01-25T03:53:32.856Z,46.23
2019-01-25T03:55:59.576Z,53.63
2019-01-25T03:58:26.189Z,47.50
2019-01-25T04:00:52.816Z,51.77
2019-01-25T04:03:19.813Z,53.03
2019-01-25T04:05:46.416Z,50.97
2019-01-25T04:08:13.025Z,50.80
2019-01-25T04:10:39.684Z,44.70
2019-01-25T04:13:06.305Z,50.17
2019-01-25T04:15:33.227Z,47.97
2019-01-25T04:17:59.928Z,50.10
2019-01-25T04:20:26.893Z,44.87
2019-01-25T04:22:53.640Z,52.60
2019-01-25T04:25:20.777Z,47.87
2019-01-25T04:27:47.802Z,54.27
2019-01-25T04:30:19.759Z,54.10
2019-01-25T04:32:46.548Z,53.67
2019-01-25T04:35:13.615Z,56.40
2019-01-25T04:37:40.283Z,60.17
2019-01-25T04:40:09.106Z,51.70
2019-01-25T04:42:36.841Z,50.77
2019-01-25T04:45:04.693Z,58.57
2019-01-25T04:47:31.580Z,55.43
2019-01-25T04:49:58.550Z,53.33
2019-01-25T04:52:25.420Z,54.23
2019-01-25T04:54:52.549Z,49.10
2019-01-25T04:57:19.469Z,50.83
2019-01-25T04:59:46.421Z,49.13
2019-01-25T05:02:13.379Z,52.77
2019-01-25T05:04:40.292Z,50.60
2019-01-25T05:07:07.223Z,58.90
2019-01-25T05:09:37.778Z,48.30
2019-01-25T05:12:04.711Z,62.17
2019-01-25T05:14:32.832Z,55.40
2019-01-25T05:16:59.679Z,53.13
2019-01-25T05:19:26.491Z,55.23
2019-01-25T05:21:53.327Z,66.67
2019-01-25T05:24:20.256Z,64.00
2019-01-25T05:26:47.269Z,62.30
2019-01-25T05:29:14.085Z,59.30
2019-01-25T05:31:42.025Z,67.30
2019-01-25T05:34:08.939Z,54.20
2019-01-25T05:36:35.768Z,66.30
2019-01-25T05:39:05.185Z,62.93
2019-01-25T05:41:32.169Z,63.20
2019-01-25T05:43:59.031Z,62.90
2019-01-25T05:46:25.972Z,53.97
2019-01-25T05:48:52.826Z,66.50
2019-01-25T05:51:19.658Z,65.40
2019-01-25T05:53:47.338Z,59.70
2019-01-25T05:56:14.180Z,62.13
2019-01-25T05:58:41.036Z,63.13
2019-01-25T06:01:07.933Z,74.17
2019-01-25T06:03:34.852Z,73.77
2019-01-25T06:06:02.775Z,67.93
2019-01-25T06:08:43.542Z,73.60
2019-01-25T06:11:07.861Z,72.93
2019-01-25T06:13:34.913Z,73.70
2019-01-25T06:16:01.865Z,75.20
2019-01-25T06:18:28.821Z,83.77
2019-01-25T06:20:55.781Z,69.97
2019-01-25T06:23:22.772Z,71.60
2019-01-25T06:25:53.387Z,76.77
2019-01-25T06:28:20.232Z,74.33
2019-01-25T06:30:47.116Z,68.60
2019-01-25T06:33:14.020Z,69.50
2019-01-25T06:35:40.852Z,63.60
2019-01-25T06:38:07.761Z,67.13
2019-01-25T06:40:34.637Z,72.70
2019-01-25T06:43:01.691Z,76.77
2019-01-25T06:45:28.560Z,69.30
2019-01-25T06:47:55.395Z,65.57
2019-01-25T06:50:22.271Z,70.43
2019-01-25T06:52:49.146Z,79.63
2019-01-25T06:55:16.024Z,71.27
2019-01-25T06:57:52.651Z,74.47
2019-01-25T07:00:22.317Z,73.17
2019-01-25T07:02:49.143Z,71.40
2019-01-25T07:05:16.128Z,74.77
2019-01-25T07:07:43.904Z,69.30
2019-01-25T07:10:12.102Z,76.67
2019-01-25T07:12:39.044Z,70.40
2019-01-25T07:15:06.904Z,77.30
2019-01-25T07:17:33.781Z,68.47
2019-01-25T07:20:00.694Z,70.87
2019-01-25T07:22:27.591Z,75.17
2019-01-25T07:24:57.280Z,66.90
2019-01-25T07:27:23.290Z,62.77
2019-01-25T07:29:50.158Z,63.17
2019-01-25T07:32:17.071Z,78.10
2019-01-25T07:34:44.184Z,61.07
2019-01-25T07:37:11.129Z,68.37
2019-01-25T07:39:38.129Z,67.17
2019-01-25T07:42:05.292Z,60.13
2019-01-25T07:44:32.227Z,57.60
2019-01-25T07:46:59.975Z,53.43
2019-01-25T07:49:26.996Z,63.80
2019-01-25T07:51:53.926Z,57.00
2019-01-25T07:54:20.793Z,49.00
2019-01-25T07:56:47.880Z,44.03
2019-01-25T07:59:14.832Z,50.40
2019-01-25T08:01:41.705Z,49.40
2019-01-25T08:04:08.683Z,54.93
2019-01-25T08:06:35.530Z,51.63
2019-01-25T08:09:04.827Z,46.10
2019-01-25T08:11:31.798Z,46.67
2019-01-25T08:13:58.656Z,43.97
2019-01-25T08:16:25.613Z,47.77
2019-01-25T08:18:52.585Z,49.97
2019-01-25T08:21:19.430Z,45.50
2019-01-25T08:23:46.392Z,50.10
2019-01-25T08:26:13.306Z,51.60
2019-01-25T08:28:40.161Z,55.93
2019-01-25T08:31:07.113Z,53.73
2019-01-25T08:33:34.048Z,89.03
2019-01-25T08:36:01.022Z,68.10
2019-01-25T08:38:27.890Z,52.67
2019-01-25T08:40:55.156Z,47.53
2019-01-25T08:43:22.156Z,47.83
2019-01-25T08:45:49.523Z,49.33
2019-01-25T08:48:16.752Z,52.80
2019-01-25T08:50:43.886Z,46.03
2019-01-25T08:53:10.971Z,53.93
2019-01-25T08:55:38.090Z,52.50
2019-01-25T08:58:04.945Z,55.20
2019-01-25T09:00:31.800Z,51.80
2019-01-25T09:02:58.660Z,62.43
2019-01-25T09:05:25.545Z,51.83
2019-01-25T09:07:52.378Z,55.07
2019-01-25T09:10:19.372Z,55.37
2019-01-25T09:12:46.191Z,67.33
2019-01-25T09:15:17.342Z,57.33
2019-01-25T09:17:44.392Z,63.07
2019-01-25T09:20:14.598Z,61.50
2019-01-25T09:22:41.347Z,55.80
2019-01-25T09:25:08.368Z,55.43
2019-01-25T09:27:35.245Z,64.50
2019-01-25T09:30:02.326Z,62.10
2019-01-25T09:32:29.184Z,64.80
2019-01-25T09:34:56.150Z,62.13
2019-01-25T09:37:22.995Z,61.03
2019-01-25T09:39:49.905Z,58.67
2019-01-25T09:42:16.769Z,59.37
2019-01-25T09:44:43.628Z,57.60
2019-01-25T09:47:10.596Z,61.20
2019-01-25T09:49:37.414Z,71.67
2019-01-25T09:52:04.288Z,67.20
2019-01-25T09:54:31.219Z,66.40
2019-01-25T09:56:58.180Z,56.40
2019-01-25T09:59:25.019Z,53.00
2019-01-25T10:01:51.875Z,57.50
2019-01-25T10:04:18.749Z,54.77
2019-01-25T10:06:48.516Z,57.47
2019-01-25T10:09:15.451Z,60.43
2019-01-25T10:11:42.432Z,57.37
2019-01-25T10:14:09.263Z,55.03
2019-01-25T10:16:36.157Z,56.30
2019-01-25T10:19:06.851Z,60.20
2019-01-25T10:21:33.756Z,49.03
2019-01-25T10:24:00.743Z,48.47
2019-01-25T10:26:27.568Z,47.77
2019-01-25T10:28:54.427Z,49.87
2019-01-25T10:31:21.350Z,50.33
2019-01-25T10:33:48.203Z,53.03
2019-01-25T10:36:15.032Z,50.00
2019-01-25T10:38:41.875Z,53.63
2019-01-25T10:41:08.740Z,51.13
2019-01-25T10:43:35.605Z,52.40
2019-01-25T10:46:02.716Z,50.53
2019-01-25T10:48:29.533Z,47.83
2019-01-25T10:50:56.396Z,50.80
2019-01-25T10:53:23.267Z,47.57
2019-01-25T10:55:50.099Z,46.47
2019-01-25T10:58:17.020Z,49.83
2019-01-25T11:00:43.915Z,48.50
2019-01-25T11:03:10.854Z,45.53
2019-01-25T11:05:37.683Z,46.10
2019-01-25T11:08:04.555Z,47.37
2019-01-25T11:10:31.392Z,44.80
2019-01-25T11:13:01.039Z,48.30
2019-01-25T11:15:27.177Z,43.13
2019-01-25T11:17:53.995Z,45.13
2019-01-25T11:20:21.315Z,51.50
2019-01-25T11:22:48.171Z,47.30
2019-01-25T11:25:16.604Z,47.30
2019-01-25T11:27:43.436Z,47.03
2019-01-25T11:30:10.776Z,50.80
2019-01-25T11:32:37.664Z,45.10
2019-01-25T11:35:04.532Z,44.77
2019-01-25T11:37:31.416Z,42.50
2019-01-25T11:39:58.358Z,48.17
2019-01-25T11:42:25.256Z,41.13
2019-01-25T11:44:52.141Z,46.90
2019-01-25T11:47:19.024Z,43.87
2019-01-25T11:49:45.858Z,47.60
2019-01-25T11:52:12.715Z,42.90
2019-01-25T11:54:40.556Z,50.10
2019-01-25T11:57:07.413Z,46.63
2019-01-25T11:59:34.281Z,48.70
2019-01-25T12:02:01.142Z,50.13
2019-01-25T12:04:28.062Z,43.37
2019-01-25T12:06:54.941Z,50.27
2019-01-25T12:09:21.853Z,46.00
2019-01-25T12:11:48.671Z,43.73
2019-01-25T12:14:15.583Z,44.07
2019-01-25T12:16:42.419Z,44.67
2019-01-25T12:19:09.204Z,44.80
2019-01-25T12:21:36.198Z,46.57
2019-01-25T12:24:03.304Z,46.80
2019-01-25T12:26:30.152Z,49.77
2019-01-25T12:28:57.132Z,50.00
2019-01-25T12:31:23.951Z,46.30
2019-01-25T12:33:50.842Z,47.10
2019-01-25T12:36:17.740Z,49.80
2019-01-25T12:38:44.628Z,47.80
2019-01-25T12:41:11.481Z,46.50
2019-01-25T12:43:38.841Z,59.30
2019-01-25T12:46:05.733Z,53.77
2019-01-25T12:48:32.693Z,46.47
2019-01-25T12:51:19.321Z,48.43
2019-01-25T12:53:46.270Z,51.83
2019-01-25T12:56:13.258Z,49.77
2019-01-25T12:58:40.207Z,50.77
2019-01-25T13:01:09.190Z,52.30
2019-01-25T13:03:36.201Z,51.90
2019-01-25T13:06:03.700Z,56.90
2019-01-25T13:08:30.667Z,48.63
2019-01-25T13:10:57.585Z,49.37
2019-01-25T13:13:31.363Z,58.10
2019-01-25T13:15:53.523Z,55.40
2019-01-25T13:18:20.469Z,50.47
2019-01-25T13:20:47.347Z,50.60
2019-01-25T13:23:14.230Z,56.37
2019-01-25T13:25:41.232Z,57.90
2019-01-25T13:28:08.544Z,56.90
2019-01-25T13:30:35.478Z,52.53
2019-01-25T13:33:02.866Z,58.37
2019-01-25T13:35:30.140Z,56.90
2019-01-25T13:37:57.202Z,53.40
2019-01-25T13:40:24.141Z,52.10
2019-01-25T13:42:51.438Z,52.00
2019-01-25T13:45:18.489Z,57.87
2019-01-25T13:47:45.505Z,52.40
2019-01-25T13:50:13.867Z,52.93
2019-01-25T13:52:40.851Z,52.13
2019-01-25T13:55:08.656Z,57.03
2019-01-25T13:57:35.528Z,52.30
2019-01-25T14:00:04.951Z,54.73
2019-01-25T14:02:32.137Z,59.20
2019-01-25T14:04:59.840Z,54.90
2019-01-25T14:07:26.859Z,61.30
2019-01-25T14:09:53.823Z,58.97
2019-01-25T14:12:20.672Z,62.77
2019-01-25T14:14:48.993Z,66.10
2019-01-25T14:17:17.495Z,62.57
2019-01-25T14:19:44.474Z,65.80
2019-01-25T14:22:12.875Z,53.07
2019-01-25T14:24:40.052Z,59.97
2019-01-25T14:27:06.952Z,56.20
2019-01-25T14:29:33.893Z,62.07
2019-01-25T14:32:01.496Z,58.10
2019-01-25T14:34:28.623Z,58.30
2019-01-25T14:36:55.556Z,61.90
2019-01-25T14:39:22.497Z,65.43
2019-01-25T14:41:49.247Z,59.00
2019-01-25T14:44:16.003Z,61.17
2019-01-25T14:46:42.691Z,56.10
2019-01-25T14:49:09.442Z,54.33
2019-01-25T14:51:36.036Z,65.73
2019-01-25T14:54:03.001Z,67.23
2019-01-25T14:56:29.623Z,53.10
2019-01-25T14:58:56.448Z,54.37
2019-01-25T15:01:23.525Z,56.27
2019-01-25T15:03:50.250Z,61.33
2019-01-25T15:06:16.953Z,61.27
2019-01-25T15:08:43.591Z,53.03
2019-01-25T15:11:10.701Z,62.80
2019-01-25T15:13:37.433Z,62.70
2019-01-25T15:16:04.258Z,59.30
2019-01-25T15:18:31.004Z,63.67
2019-01-25T15:20:57.693Z,58.10
2019-01-25T15:23:24.516Z,63.90
2019-01-25T15:25:51.202Z,62.10
2019-01-25T15:28:18.064Z,67.43
2019-01-25T15:30:45.107Z,58.13
2019-01-25T15:33:12.647Z,56.60
2019-01-25T15:35:39.275Z,63.83
2019-01-25T15:38:06.036Z,65.93
2019-01-25T15:40:32.834Z,64.43
2019-01-25T15:42:59.513Z,68.37
2019-01-25T15:45:26.319Z,67.23
2019-01-25T15:47:53.109Z,65.10
2019-01-25T15:50:22.202Z,65.83
2019-01-25T15:52:49.323Z,63.83
2019-01-25T15:55:17.008Z,61.03
2019-01-25T15:57:44.071Z,64.37
2019-01-25T16:00:13.772Z,66.70
2019-01-25T16:02:41.318Z,60.70
2019-01-25T16:05:10.087Z,67.30
2019-01-25T16:07:36.877Z,58.57
2019-01-25T16:10:05.414Z,66.10
2019-01-25T16:12:32.880Z,63.87
2019-01-25T16:14:59.717Z,59.57
2019-01-25T16:17:26.582Z,69.30
2019-01-25T16:19:54.158Z,67.60
2019-01-25T16:22:20.970Z,65.17
2019-01-25T16:24:48.321Z,61.00
2019-01-25T16:27:15.346Z,69.90
2019-01-25T16:29:42.548Z,68.40
2019-01-25T16:32:10.443Z,56.73
2019-01-25T16:34:37.737Z,68.97
2019-01-25T16:37:05.583Z,66.70
2019-01-25T16:39:32.681Z,65.60
2019-01-25T16:41:59.681Z,73.50
2019-01-25T16:44:26.521Z,68.97
2019-01-25T16:46:53.399Z,75.10
2019-01-25T16:49:20.175Z,66.77
2019-01-25T16:51:46.981Z,69.90
2019-01-25T16:54:14.243Z,62.60
2019-01-25T16:56:41.014Z,64.97
2019-01-25T16:59:07.893Z,75.30
2019-01-25T17:01:38.038Z,70.00
2019-01-25T17:04:04.901Z,65.90
2019-01-25T17:06:31.627Z,71.40
2019-01-25T17:08:58.376Z,77.13
2019-01-25T17:11:25.133Z,78.23
2019-01-25T17:13:51.867Z,68.77
2019-01-25T17:16:18.832Z,72.97
2019-01-25T17:18:45.669Z,70.10
2019-01-25T17:21:12.924Z,76.13
2019-01-25T17:23:39.706Z,67.13
2019-01-25T17:26:07.009Z,73.23
2019-01-25T17:28:34.009Z,70.90
2019-01-25T17:31:01.236Z,67.80
2019-01-25T17:33:28.376Z,72.60
2019-01-25T17:35:54.973Z,69.00
2019-01-25T17:38:25.492Z,73.10
2019-01-25T17:40:52.241Z,67.20
2019-01-25T17:43:19.182Z,75.53
2019-01-25T17:45:45.874Z,85.67
2019-01-25T17:48:12.949Z,70.50
2019-01-25T17:50:39.566Z,75.17
2019-01-25T17:53:06.187Z,71.83
2019-01-25T17:55:32.930Z,73.80
2019-01-25T17:57:59.697Z,77.33
2019-01-25T18:00:30.115Z,70.00
2019-01-25T18:02:57.105Z,75.43
2019-01-25T18:05:23.760Z,82.47
2019-01-25T18:07:50.913Z,74.77
2019-01-25T18:10:17.884Z,69.47
2019-01-25T18:12:44.583Z,74.70
2019-01-25T18:15:12.236Z,74.00
2019-01-25T18:17:38.980Z,83.37
2019-01-25T18:20:07.587Z,75.70
2019-01-25T18:22:34.601Z,71.17
2019-01-25T18:25:01.556Z,60.23
2019-01-25T18:27:28.224Z,71.70
2019-01-25T18:29:57.336Z,72.50
2019-01-25T18:32:26.463Z,71.67
2019-01-25T18:34:53.081Z,82.00
2019-01-25T18:37:20.177Z,74.70
2019-01-25T18:39:46.845Z,71.27
2019-01-25T18:42:13.597Z,76.67
2019-01-25T18:44:40.306Z,78.43
2019-01-25T18:47:06.916Z,78.47
2019-01-25T18:49:33.591Z,71.80
2019-01-25T18:52:03.532Z,82.07
2019-01-25T18:54:32.565Z,79.73
2019-01-25T18:57:02.503Z,79.13
2019-01-25T18:59:30.119Z,70.20
2019-01-25T19:01:56.886Z,76.93
2019-01-25T19:04:23.541Z,76.53
2019-01-25T19:06:51.066Z,78.90
2019-01-25T19:09:17.797Z,79.27
2019-01-25T19:11:44.508Z,76.23
2019-01-25T19:14:11.375Z,78.50
2019-01-25T19:16:38.293Z,77.73
2019-01-25T19:19:05.078Z,70.60
2019-01-25T19:21:31.995Z,73.80
2019-01-25T19:23:59.149Z,76.50
2019-01-25T19:26:26.592Z,74.90
2019-01-25T19:28:53.704Z,83.53
2019-01-25T19:31:21.053Z,88.10
2019-01-25T19:33:48.271Z,77.13
2019-01-25T19:36:15.105Z,71.17
2019-01-25T19:38:41.840Z,88.67
2019-01-25T19:41:11.591Z,69.27
2019-01-25T19:43:39.213Z,76.30
2019-01-25T19:46:06.337Z,76.27
2019-01-25T19:48:33.240Z,65.93
2019-01-25T19:51:00.927Z,77.70
2019-01-25T19:53:27.574Z,63.70
2019-01-25T19:55:54.689Z,54.90
2019-01-25T19:58:21.906Z,52.97
2019-01-25T20:00:50.033Z,71.50
2019-01-25T20:03:16.802Z,51.53
2019-01-25T20:05:43.804Z,58.27
2019-01-25T20:08:11.123Z,43.93
2019-01-25T20:10:37.912Z,101.90
2019-01-25T20:13:05.448Z,50.70
2019-01-25T20:15:32.200Z,50.63
2019-01-25T20:17:59.165Z,48.27
2019-01-25T20:20:28.140Z,46.20
2019-01-25T20:22:55.033Z,44.60
2019-01-25T20:25:22.067Z,46.07
2019-01-25T20:27:48.958Z,47.37
2019-01-25T20:30:18.392Z,45.30
2019-01-25T20:32:45.248Z,35.80
2019-01-25T20:35:14.457Z,50.87
2019-01-25T20:37:43.934Z,52.37
2019-01-25T20:40:12.627Z,47.93
2019-01-25T20:42:39.682Z,49.60
2019-01-25T20:45:12.408Z,47.57
2019-01-25T20:47:39.336Z,42.93
2019-01-25T20:50:10.040Z,43.57
2019-01-25T20:52:37.088Z,47.20
2019-01-25T20:55:04.808Z,44.27
2019-01-25T20:57:31.858Z,41.27
2019-01-25T20:59:58.464Z,41.57
2019-01-25T21:02:25.096Z,40.53
2019-01-25T21:04:51.788Z,44.80
2019-01-25T21:07:18.630Z,47.93
2019-01-25T21:09:45.305Z,44.73
2019-01-25T21:12:11.951Z,41.03
2019-01-25T21:14:38.547Z,43.57
2019-01-25T21:17:05.181Z,46.13
2019-01-25T21:19:31.786Z,44.20
2019-01-25T21:21:58.372Z,41.07
2019-01-25T21:24:25.217Z,45.23
2019-01-25T21:26:51.995Z,45.17
2019-01-25T21:29:18.597Z,42.67
2019-01-25T21:31:45.274Z,42.70
2019-01-25T21:34:11.996Z,46.17
2019-01-25T21:36:40.193Z,40.37
2019-01-25T21:39:08.045Z,42.70
2019-01-25T21:41:34.731Z,43.40
2019-01-25T21:44:01.352Z,39.07
2019-01-25T21:46:30.429Z,39.20
2019-01-25T21:48:57.085Z,42.33
2019-01-25T21:51:23.952Z,43.10
2019-01-25T21:53:50.648Z,43.23
2019-01-25T21:56:18.472Z,42.43
2019-01-25T21:58:45.085Z,41.03
2019-01-25T22:01:13.781Z,51.27
2019-01-25T22:03:40.952Z,43.93
2019-01-25T22:06:07.986Z,40.30
2019-01-25T22:08:34.932Z,42.77
2019-01-25T22:11:04.624Z,44.70
2019-01-25T22:13:31.411Z,48.10
2019-01-25T22:15:58.153Z,45.73
2019-01-25T22:18:24.895Z,43.23
2019-01-25T22:20:51.559Z,43.97
2019-01-25T22:23:18.267Z,42.33
2019-01-25T22:25:45.205Z,44.67
2019-01-25T22:28:11.854Z,39.10
2019-01-25T22:30:38.521Z,47.87
2019-01-25T22:33:05.120Z,43.73
2019-01-25T22:35:31.755Z,42.67
2019-01-25T22:37:58.396Z,44.20
2019-01-25T22:40:30.143Z,44.73
2019-01-25T22:42:57.140Z,37.63
2019-01-25T22:45:25.727Z,44.13
2019-01-25T22:47:52.365Z,45.70
2019-01-25T22:50:21.112Z,45.00
2019-01-25T22:52:48.103Z,48.10
2019-01-25T22:55:15.405Z,41.53
2019-01-25T22:57:42.487Z,46.77
2019-01-25T23:00:47.633Z,50.40
2019-01-25T23:03:15.513Z,43.30
2019-01-25T23:06:09.275Z,47.43
2019-01-25T23:08:35.900Z,49.50
2019-01-25T23:11:02.859Z,52.10
2019-01-25T23:13:35.556Z,50.87
2019-01-25T23:16:06.433Z,45.70
2019-01-25T23:18:31.203Z,50.03
2019-01-25T23:20:57.928Z,58.30
2019-01-25T23:23:24.731Z,50.60
2019-01-25T23:25:51.459Z,62.20
2019-01-25T23:28:18.061Z,53.30
2019-01-25T23:30:44.736Z,54.33
2019-01-25T23:33:11.362Z,55.30
2019-01-25T23:35:38.588Z,56.50
2019-01-25T23:38:05.370Z,57.77
2019-01-25T23:40:31.971Z,56.17
2019-01-25T23:42:58.605Z,47.33
2019-01-25T23:45:25.332Z,54.17
2019-01-25T23:47:51.952Z,57.90
2019-01-25T23:50:18.752Z,59.63
2019-01-25T23:52:45.393Z,60.97
2019-01-25T23:55:12.099Z,50.27
2019-01-25T23:57:38.881Z,57.10
